Time;durP1;ratioP1;P1;durP2;ratioP2;P2;SDS_P1;SDS_P2;PMS_P1;PMS_P2;Temp;Humidity;BMP_temperature;BMP_pressure;BME280_temperature;BME280_humidity;BME280_pressure;Samples;Min_cycle;Max_cycle;Signal;HPM_P1;HPM_P2
2024/01/07 00:01:00;;;;;;;;;;;1.30;99.90;;;;;;4976725;28;19918;-78
2024/01/07 00:03:46;;;;;;;;;;;1.30;99.90;;;;;;4972869;28;20335;-78
2024/01/07 00:06:32;;;;;;;;;;;1.30;99.90;;;;;;4986261;28;19925;-78
2024/01/07 00:09:18;;;;;;;;;;;1.30;99.90;;;;;;4950878;28;20384;-77
2024/01/07 00:12:04;;;;;;;;;;;1.20;99.90;;;;;;4978128;28;20386;-77
2024/01/07 00:14:52;;;;;;;;;;;1.20;99.90;;;;;;4957007;28;19922;-78
2024/01/07 00:17:38;;;;;;;;;;;1.20;99.90;;;;;;4977926;28;20024;-78
2024/01/07 00:20:24;;;;;;;;;;;1.20;99.90;;;;;;4977626;28;19966;-78
2024/01/07 00:23:10;;;;;;;;;;;1.10;99.90;;;;;;4971158;28;20369;-77
2024/01/07 00:25:56;;;;;;;;;;;1.00;99.90;;;;;;4973658;28;19921;-78
2024/01/07 00:28:43;;;;;;;;;;;1.00;99.90;;;;;;4976415;28;19918;-77
2024/01/07 00:31:29;;;;;;;;;;;1.00;99.90;;;;;;4974681;28;19922;-78
2024/01/07 00:34:15;;;;;;;;;;;1.00;99.90;;;;;;4980670;28;19914;-78
2024/01/07 00:37:01;;;;;;;;;;;1.00;99.90;;;;;;4975995;28;20246;-78
2024/01/07 00:39:47;;;;;;;;;;;1.10;99.90;;;;;;4981978;28;19914;-78
2024/01/07 00:42:33;;;;;;;;;;;1.00;99.90;;;;;;4983055;28;19973;-78
2024/01/07 00:45:19;;;;;;;;;;;1.00;99.90;;;;;;4983583;28;19924;-78
2024/01/07 00:48:05;;;;;;;;;;;1.10;99.90;;;;;;4967852;28;19924;-78
2024/01/07 00:50:51;;;;;;;;;;;1.00;99.90;;;;;;4994498;28;19987;-78
2024/01/07 00:53:37;;;;;;;;;;;1.00;99.90;;;;;;4990260;28;19926;-78
2024/01/07 00:56:25;;;;;;;;;;;1.00;99.90;;;;;;4976862;28;19918;-78
2024/01/07 00:59:11;;;;;;;;;;;1.00;99.90;;;;;;4974281;28;19990;-78
2024/01/07 01:01:57;;;;;;;;;;;1.00;99.90;;;;;;4981408;28;19914;-78
2024/01/07 01:04:43;;;;;;;;;;;1.00;99.90;;;;;;4966916;28;19929;-78
2024/01/07 01:07:29;;;;;;;;;;;0.90;99.90;;;;;;4993008;28;19972;-78
2024/01/07 01:10:16;;;;;;;;;;;0.90;99.90;;;;;;4980042;28;19924;-78
2024/01/07 01:13:02;;;;;;;;;;;0.90;99.90;;;;;;4976469;28;19922;-78
2024/01/07 01:15:48;;;;;;;;;;;0.90;99.90;;;;;;4969725;28;19997;-78
2024/01/07 01:18:34;;;;;;;;;;;0.80;99.90;;;;;;4981900;28;19978;-78
2024/01/07 01:21:20;;;;;;;;;;;0.80;99.90;;;;;;4966217;28;19918;-78
2024/01/07 01:24:06;;;;;;;;;;;0.80;99.90;;;;;;4982428;28;19913;-78
2024/01/07 01:26:53;;;;;;;;;;;0.80;99.90;;;;;;4988769;28;20033;-78
2024/01/07 01:29:39;;;;;;;;;;;0.80;99.90;;;;;;4983588;28;19914;-78
2024/01/07 01:32:25;;;;;;;;;;;0.80;99.90;;;;;;4974898;28;19918;-78
2024/01/07 01:35:11;;;;;;;;;;;0.80;99.90;;;;;;4982363;28;20004;-78
2024/01/07 01:37:58;;;;;;;;;;;0.80;99.90;;;;;;4965115;28;20315;-78
2024/01/07 01:40:43;;;;;;;;;;;0.80;99.90;;;;;;4994981;28;19920;-78
2024/01/07 01:43:29;;;;;;;;;;;0.70;99.90;;;;;;4968652;28;19918;-78
2024/01/07 01:46:15;;;;;;;;;;;0.80;99.90;;;;;;4981454;28;20012;-78
2024/01/07 01:49:01;;;;;;;;;;;0.80;99.90;;;;;;4964206;28;19948;-78
2024/01/07 01:51:47;;;;;;;;;;;0.70;99.90;;;;;;4961547;28;19918;-78
2024/01/07 01:54:33;;;;;;;;;;;0.80;99.90;;;;;;4999235;28;20225;-78
2024/01/07 01:57:20;;;;;;;;;;;0.70;99.90;;;;;;4983211;28;19914;-78
2024/01/07 02:00:06;;;;;;;;;;;0.70;99.90;;;;;;4979860;28;19914;-78
2024/01/07 02:02:52;;;;;;;;;;;0.70;99.90;;;;;;4982369;28;19918;-78
2024/01/07 02:05:38;;;;;;;;;;;0.60;99.90;;;;;;4981625;28;20397;-78
2024/01/07 02:08:24;;;;;;;;;;;0.70;99.90;;;;;;4980758;28;19914;-78
2024/01/07 02:11:19;;;;;;;;;;;0.70;99.90;;;;;;4961013;28;19980;-78
2024/01/07 02:14:05;;;;;;;;;;;0.70;99.90;;;;;;4967737;28;19924;-77
2024/01/07 02:16:51;;;;;;;;;;;0.60;99.90;;;;;;4995110;28;20342;-78
2024/01/07 02:19:37;;;;;;;;;;;0.70;99.90;;;;;;4982185;28;19913;-77
2024/01/07 02:22:23;;;;;;;;;;;0.70;99.90;;;;;;4981435;28;19920;-77
2024/01/07 02:25:09;;;;;;;;;;;0.70;99.90;;;;;;4981650;28;19918;-78
2024/01/07 02:27:54;;;;;;;;;;;0.70;99.90;;;;;;4982003;28;19914;-78
2024/01/07 02:30:40;;;;;;;;;;;0.70;99.90;;;;;;4983082;28;19918;-78
2024/01/07 02:33:26;;;;;;;;;;;0.70;99.90;;;;;;4994125;28;19972;-78
2024/01/07 02:36:12;;;;;;;;;;;0.70;99.90;;;;;;4982500;28;20322;-78
2024/01/07 02:38:58;;;;;;;;;;;0.60;99.90;;;;;;4994019;28;19918;-78
2024/01/07 02:41:44;;;;;;;;;;;0.70;99.90;;;;;;4973156;28;20254;-78
2024/01/07 02:44:30;;;;;;;;;;;0.60;99.90;;;;;;4982215;28;20246;-78
2024/01/07 02:47:16;;;;;;;;;;;0.80;99.90;;;;;;4981246;28;19921;-78
2024/01/07 02:50:03;;;;;;;;;;;0.70;99.90;;;;;;4986959;28;19917;-77
2024/01/07 02:52:49;;;;;;;;;;;0.70;99.90;;;;;;4983799;28;19925;-78
2024/01/07 02:55:35;;;;;;;;;;;0.60;99.90;;;;;;4985153;28;19914;-78
2024/01/07 02:58:22;;;;;;;;;;;0.50;99.90;;;;;;4985328;28;19914;-78
2024/01/07 03:01:09;;;;;;;;;;;0.50;99.90;;;;;;4970984;28;19913;-78
2024/01/07 03:03:55;;;;;;;;;;;0.50;99.90;;;;;;4968912;28;20246;-78
2024/01/07 03:06:41;;;;;;;;;;;0.60;99.90;;;;;;4985038;28;19914;-78
2024/01/07 03:09:27;;;;;;;;;;;0.60;99.90;;;;;;4978523;28;19929;-78
2024/01/07 03:12:14;;;;;;;;;;;0.50;99.90;;;;;;4986976;28;19918;-78
2024/01/07 03:15:00;;;;;;;;;;;0.50;99.90;;;;;;4997135;28;19993;-77
2024/01/07 03:17:46;;;;;;;;;;;0.50;99.90;;;;;;5001463;28;19913;-78
2024/01/07 03:20:32;;;;;;;;;;;0.40;99.90;;;;;;5003747;28;19928;-78
2024/01/07 03:23:18;;;;;;;;;;;0.40;99.90;;;;;;4986213;28;19914;-78
2024/01/07 03:26:04;;;;;;;;;;;0.40;99.90;;;;;;4979581;28;19914;-78
2024/01/07 03:28:50;;;;;;;;;;;0.40;99.90;;;;;;4977214;28;19917;-78
2024/01/07 03:31:36;;;;;;;;;;;0.50;99.90;;;;;;4971515;28;19957;-78
2024/01/07 03:34:22;;;;;;;;;;;0.30;99.90;;;;;;4970955;28;19984;-78
2024/01/07 03:37:08;;;;;;;;;;;0.30;99.90;;;;;;4969670;28;19920;-78
2024/01/07 03:39:53;;;;;;;;;;;0.20;99.90;;;;;;4955956;28;19953;-78
2024/01/07 03:42:39;;;;;;;;;;;0.30;99.90;;;;;;5000424;28;19972;-78
2024/01/07 03:45:26;;;;;;;;;;;0.30;99.90;;;;;;4989857;28;19913;-78
2024/01/07 03:48:12;;;;;;;;;;;0.20;99.90;;;;;;4989758;28;19926;-78
2024/01/07 03:50:58;;;;;;;;;;;0.30;99.90;;;;;;4982753;28;19913;-78
2024/01/07 03:53:44;;;;;;;;;;;0.30;99.90;;;;;;4984729;28;19922;-78
2024/01/07 03:56:29;;;;;;;;;;;0.30;99.90;;;;;;4998753;28;19948;-78
2024/01/07 03:59:15;;;;;;;;;;;0.30;99.90;;;;;;4983167;28;19931;-79
2024/01/07 04:02:02;;;;;;;;;;;0.30;99.90;;;;;;4984228;28;19973;-79
2024/01/07 04:04:48;;;;;;;;;;;0.30;99.90;;;;;;4982756;28;19949;-78
2024/01/07 04:07:34;;;;;;;;;;;0.40;99.90;;;;;;4976035;28;19922;-78
2024/01/07 04:10:19;;;;;;;;;;;0.30;99.90;;;;;;4990523;28;19929;-78
2024/01/07 04:13:05;;;;;;;;;;;0.30;99.90;;;;;;4987756;28;20317;-78
2024/01/07 04:15:51;;;;;;;;;;;0.30;99.90;;;;;;4982395;28;19914;-78
2024/01/07 04:18:37;;;;;;;;;;;0.30;99.90;;;;;;4981992;28;19945;-78
2024/01/07 04:21:23;;;;;;;;;;;0.30;99.90;;;;;;4982806;28;20230;-78
2024/01/07 04:24:09;;;;;;;;;;;0.30;99.90;;;;;;4981855;28;19925;-78
2024/01/07 04:26:55;;;;;;;;;;;0.30;99.90;;;;;;4982228;28;19939;-78
2024/01/07 04:29:41;;;;;;;;;;;0.30;99.90;;;;;;4983196;28;19968;-79
2024/01/07 04:32:27;;;;;;;;;;;0.30;99.90;;;;;;4983225;28;19929;-79
2024/01/07 04:35:13;;;;;;;;;;;0.30;99.90;;;;;;4983238;28;20381;-79
2024/01/07 04:37:59;;;;;;;;;;;0.30;99.90;;;;;;4964822;28;19925;-79
2024/01/07 04:40:45;;;;;;;;;;;0.30;99.90;;;;;;4990561;28;20005;-78
2024/01/07 04:43:31;;;;;;;;;;;0.30;99.90;;;;;;5014864;28;19924;-78
2024/01/07 04:46:17;;;;;;;;;;;0.20;99.90;;;;;;5001526;28;19999;-78
2024/01/07 04:49:03;;;;;;;;;;;0.10;99.90;;;;;;5009892;28;20247;-79
2024/01/07 04:51:49;;;;;;;;;;;0.10;99.90;;;;;;4979986;28;20504;-78
2024/01/07 04:54:36;;;;;;;;;;;0.20;99.90;;;;;;4964033;28;19926;-78
2024/01/07 04:57:22;;;;;;;;;;;0.10;99.90;;;;;;4962393;28;19924;-78
2024/01/07 05:00:08;;;;;;;;;;;0.00;99.90;;;;;;4963406;28;19914;-78
2024/01/07 05:02:54;;;;;;;;;;;-0.10;99.90;;;;;;4951027;28;20418;-78
2024/01/07 05:05:39;;;;;;;;;;;0.00;99.90;;;;;;4945288;28;19929;-78
2024/01/07 05:08:26;;;;;;;;;;;0.00;99.90;;;;;;4962594;28;20314;-78
2024/01/07 05:11:12;;;;;;;;;;;-0.10;99.90;;;;;;4962513;28;20241;-78
2024/01/07 05:13:58;;;;;;;;;;;-0.10;99.90;;;;;;4956521;29;20315;-79
2024/01/07 05:16:45;;;;;;;;;;;0.00;99.90;;;;;;4958435;28;19925;-78
2024/01/07 05:19:31;;;;;;;;;;;-0.10;99.90;;;;;;4956943;29;19919;-78
2024/01/07 05:22:16;;;;;;;;;;;-0.10;99.90;;;;;;4963639;28;19972;-78
2024/01/07 05:25:02;;;;;;;;;;;-0.10;99.90;;;;;;4962513;28;19944;-78
2024/01/07 05:27:48;;;;;;;;;;;-0.20;99.90;;;;;;4948901;28;19914;-78
2024/01/07 05:30:34;;;;;;;;;;;-0.20;99.90;;;;;;4949908;28;19989;-78
2024/01/07 05:33:20;;;;;;;;;;;-0.20;99.90;;;;;;4976486;28;20395;-78
2024/01/07 05:36:06;;;;;;;;;;;-0.20;99.90;;;;;;4968298;28;20053;-78
2024/01/07 05:38:52;;;;;;;;;;;-0.30;99.90;;;;;;4950253;28;20323;-78
2024/01/07 05:41:40;;;;;;;;;;;-0.30;99.90;;;;;;4949592;28;19921;-78
2024/01/07 05:44:26;;;;;;;;;;;-0.30;99.90;;;;;;4959905;28;20107;-78
2024/01/07 05:47:12;;;;;;;;;;;-0.40;99.90;;;;;;4963049;28;19992;-78
2024/01/07 05:49:58;;;;;;;;;;;-0.30;99.90;;;;;;4963052;28;19914;-78
2024/01/07 05:52:44;;;;;;;;;;;-0.50;99.90;;;;;;4985039;28;19921;-78
2024/01/07 05:55:30;;;;;;;;;;;-0.50;99.90;;;;;;4975956;28;19968;-78
2024/01/07 05:58:16;;;;;;;;;;;-0.50;99.90;;;;;;4956643;28;19922;-78
2024/01/07 06:01:02;;;;;;;;;;;-0.40;99.90;;;;;;4958455;28;20319;-78
2024/01/07 06:03:48;;;;;;;;;;;-0.50;99.90;;;;;;4981684;28;20524;-78
2024/01/07 06:06:34;;;;;;;;;;;-0.50;99.90;;;;;;4955283;28;19925;-78
2024/01/07 06:09:20;;;;;;;;;;;-0.50;99.90;;;;;;4980330;28;19926;-78
2024/01/07 06:12:07;;;;;;;;;;;-0.50;99.90;;;;;;4999112;28;19918;-76
2024/01/07 06:14:53;;;;;;;;;;;-0.40;99.90;;;;;;5009191;28;19925;-78
2024/01/07 06:17:39;;;;;;;;;;;-0.50;99.90;;;;;;4996118;28;20088;-79
2024/01/07 06:20:24;;;;;;;;;;;-0.50;99.90;;;;;;4982065;28;20315;-79
2024/01/07 06:23:10;;;;;;;;;;;-0.50;99.90;;;;;;4998289;28;19945;-77
2024/01/07 06:25:56;;;;;;;;;;;-0.40;99.90;;;;;;4999165;28;20315;-78
2024/01/07 06:28:42;;;;;;;;;;;-0.50;99.90;;;;;;4984710;28;19914;-77
2024/01/07 06:31:28;;;;;;;;;;;-0.40;99.90;;;;;;4999972;28;19949;-78
2024/01/07 06:34:14;;;;;;;;;;;-0.50;99.90;;;;;;4975579;28;19921;-78
2024/01/07 06:37:00;;;;;;;;;;;-0.50;99.90;;;;;;4984634;28;20326;-78
2024/01/07 06:39:47;;;;;;;;;;;-0.40;99.90;;;;;;4958734;28;19918;-78
2024/01/07 06:42:33;;;;;;;;;;;-0.40;99.90;;;;;;4971634;28;19933;-78
2024/01/07 06:45:18;;;;;;;;;;;-0.40;99.90;;;;;;4971674;28;19915;-78
2024/01/07 06:48:05;;;;;;;;;;;-0.50;99.90;;;;;;4977539;28;20008;-78
2024/01/07 06:50:50;;;;;;;;;;;-0.50;99.90;;;;;;4978586;28;19998;-77
2024/01/07 06:53:36;;;;;;;;;;;-0.50;99.90;;;;;;4973160;28;19925;-78
2024/01/07 06:56:24;;;;;;;;;;;-0.50;99.90;;;;;;4964359;28;19914;-77
2024/01/07 06:59:10;;;;;;;;;;;-0.50;99.90;;;;;;4968390;28;19949;-78
2024/01/07 07:01:56;;;;;;;;;;;-0.40;99.90;;;;;;4991024;28;20000;-78
2024/01/07 07:04:42;;;;;;;;;;;-0.30;99.90;;;;;;4969897;28;20224;-78
2024/01/07 07:07:28;;;;;;;;;;;-0.30;99.90;;;;;;4966403;28;19914;-78
2024/01/07 07:10:15;;;;;;;;;;;-0.40;99.90;;;;;;4964299;28;19949;-78
2024/01/07 07:13:01;;;;;;;;;;;-0.50;99.90;;;;;;4957617;28;19922;-78
2024/01/07 07:15:47;;;;;;;;;;;-0.40;99.90;;;;;;4960585;28;19949;-78
2024/01/07 07:18:33;;;;;;;;;;;-0.40;99.90;;;;;;4995136;28;19925;-78
2024/01/07 07:21:19;;;;;;;;;;;-0.40;99.90;;;;;;4965181;28;19918;-78
2024/01/07 07:24:05;;;;;;;;;;;-0.30;99.90;;;;;;4981087;28;20000;-78
2024/01/07 07:26:51;;;;;;;;;;;-0.40;99.90;;;;;;4990947;28;19964;-78
2024/01/07 07:29:37;;;;;;;;;;;-0.40;99.90;;;;;;4996885;28;19953;-79
2024/01/07 07:32:23;;;;;;;;;;;-0.40;99.90;;;;;;4990151;28;19918;-78
2024/01/07 07:35:09;;;;;;;;;;;-0.40;99.90;;;;;;4983187;28;19913;-78
2024/01/07 07:37:55;;;;;;;;;;;-0.30;99.90;;;;;;4997597;28;19913;-80
2024/01/07 07:40:41;;;;;;;;;;;-0.30;99.90;;;;;;4997833;28;20004;-78
2024/01/07 07:43:28;;;;;;;;;;;-0.30;99.90;;;;;;4963646;28;19918;-78
2024/01/07 07:46:15;;;;;;;;;;;-0.40;99.90;;;;;;4983907;28;19922;-78
2024/01/07 07:49:01;;;;;;;;;;;-0.30;99.90;;;;;;4983209;28;19922;-78
2024/01/07 07:51:48;;;;;;;;;;;-0.30;99.90;;;;;;4963595;28;19918;-78
2024/01/07 07:54:37;;;;;;;;;;;-0.20;99.90;;;;;;4964662;28;20012;-78
2024/01/07 07:57:24;;;;;;;;;;;-0.20;99.90;;;;;;4979141;28;20204;-78
2024/01/07 08:00:13;;;;;;;;;;;-0.20;99.90;;;;;;4982294;28;20008;-78
2024/01/07 08:02:59;;;;;;;;;;;-0.20;99.90;;;;;;4983110;28;19928;-78
2024/01/07 08:05:45;;;;;;;;;;;-0.20;99.90;;;;;;4975702;28;20289;-78
2024/01/07 08:08:32;;;;;;;;;;;-0.10;99.90;;;;;;4980698;28;20404;-78
2024/01/07 08:11:18;;;;;;;;;;;-0.10;99.90;;;;;;4963444;28;19914;-78
2024/01/07 08:14:06;;;;;;;;;;;-0.10;99.90;;;;;;4968692;28;20219;-78
2024/01/07 08:16:52;;;;;;;;;;;-0.10;99.90;;;;;;4973262;28;19924;-78
2024/01/07 08:19:38;;;;;;;;;;;0.00;99.90;;;;;;4968706;28;20619;-78
2024/01/07 08:22:24;;;;;;;;;;;0.00;99.90;;;;;;4951797;28;19977;-78
2024/01/07 08:25:11;;;;;;;;;;;0.00;99.90;;;;;;4976508;28;20310;-78
2024/01/07 08:27:57;;;;;;;;;;;0.00;99.90;;;;;;4969630;28;19949;-78
2024/01/07 08:30:44;;;;;;;;;;;0.00;99.90;;;;;;4981783;28;20302;-78
2024/01/07 08:33:33;;;;;;;;;;;0.00;99.90;;;;;;4967584;28;19932;-78
2024/01/07 08:36:18;;;;;;;;;;;0.10;99.90;;;;;;4961995;28;19926;-78
2024/01/07 08:39:04;;;;;;;;;;;0.10;99.90;;;;;;4970772;28;20521;-78
2024/01/07 08:41:50;;;;;;;;;;;0.00;99.90;;;;;;4976710;28;19976;-78
2024/01/07 08:44:36;;;;;;;;;;;0.10;99.90;;;;;;4957512;28;19988;-78
2024/01/07 08:47:22;;;;;;;;;;;0.10;99.90;;;;;;4987941;28;19988;-78
2024/01/07 08:50:08;;;;;;;;;;;0.10;99.90;;;;;;4975244;28;20239;-78
2024/01/07 08:52:54;;;;;;;;;;;0.10;99.90;;;;;;4982213;28;19929;-78
2024/01/07 08:55:40;;;;;;;;;;;0.00;99.90;;;;;;4965522;28;19948;-78
2024/01/07 08:58:26;;;;;;;;;;;0.10;99.90;;;;;;4972457;28;19914;-78
2024/01/07 09:01:14;;;;;;;;;;;0.10;99.90;;;;;;4988053;28;19925;-78
2024/01/07 09:04:00;;;;;;;;;;;0.10;99.90;;;;;;4975470;28;20016;-78
2024/01/07 09:06:46;;;;;;;;;;;0.10;99.90;;;;;;4981201;28;20248;-78
2024/01/07 09:09:33;;;;;;;;;;;0.20;99.90;;;;;;4981891;28;19914;-78
2024/01/07 09:12:20;;;;;;;;;;;0.20;99.90;;;;;;4981971;28;19921;-78
2024/01/07 09:15:08;;;;;;;;;;;0.20;99.90;;;;;;4977309;28;20207;-78
2024/01/07 09:17:54;;;;;;;;;;;0.20;99.90;;;;;;4963031;28;19921;-77
2024/01/07 09:20:40;;;;;;;;;;;0.20;99.90;;;;;;4969855;28;19922;-78
2024/01/07 09:23:26;;;;;;;;;;;0.30;99.90;;;;;;4978967;28;20242;-78
2024/01/07 09:26:15;;;;;;;;;;;0.30;99.90;;;;;;4981697;28;20640;-78
2024/01/07 09:29:02;;;;;;;;;;;0.30;99.90;;;;;;4981511;28;19949;-78
2024/01/07 09:31:48;;;;;;;;;;;0.30;99.90;;;;;;4967357;28;19925;-78
2024/01/07 09:34:34;;;;;;;;;;;0.30;99.90;;;;;;4975507;28;19914;-78
2024/01/07 09:37:20;;;;;;;;;;;0.40;99.90;;;;;;4980506;28;19918;-78
2024/01/07 09:40:06;;;;;;;;;;;0.30;99.90;;;;;;4980644;28;19925;-78
2024/01/07 09:42:52;;;;;;;;;;;0.40;99.90;;;;;;4968921;28;19985;-78
2024/01/07 09:45:39;;;;;;;;;;;0.40;99.90;;;;;;4994814;28;19949;-78
2024/01/07 09:48:24;;;;;;;;;;;0.40;99.90;;;;;;5014723;28;19961;-77
2024/01/07 09:51:10;;;;;;;;;;;0.30;99.90;;;;;;4974604;28;20033;-77
2024/01/07 09:53:57;;;;;;;;;;;0.40;99.90;;;;;;4994292;28;19932;-77
2024/01/07 09:56:45;;;;;;;;;;;0.40;99.90;;;;;;4982054;28;19918;-77
2024/01/07 09:59:31;;;;;;;;;;;0.40;99.90;;;;;;4986476;28;19917;-77
2024/01/07 10:02:17;;;;;;;;;;;0.40;99.90;;;;;;4988609;28;19960;-77
2024/01/07 10:05:03;;;;;;;;;;;0.50;99.90;;;;;;4979926;28;20394;-77
2024/01/07 10:07:49;;;;;;;;;;;0.50;99.90;;;;;;4969921;28;20639;-77
2024/01/07 10:10:35;;;;;;;;;;;0.50;99.90;;;;;;4990101;28;19925;-81
2024/01/07 10:13:22;;;;;;;;;;;0.50;99.90;;;;;;4978022;28;19921;-81
2024/01/07 10:16:08;;;;;;;;;;;0.50;99.90;;;;;;5003751;28;19972;-81
2024/01/07 10:18:54;;;;;;;;;;;0.60;99.90;;;;;;4994393;28;20279;-81
2024/01/07 10:21:40;;;;;;;;;;;0.60;99.90;;;;;;4984669;28;19918;-81
2024/01/07 10:24:26;;;;;;;;;;;0.60;99.90;;;;;;4985252;28;19925;-81
2024/01/07 10:27:13;;;;;;;;;;;0.70;99.90;;;;;;4986415;28;20556;-81
2024/01/07 10:29:58;;;;;;;;;;;0.70;99.90;;;;;;4993905;28;19992;-80
2024/01/07 10:32:46;;;;;;;;;;;0.80;99.90;;;;;;4988216;28;19932;-79
2024/01/07 10:35:35;;;;;;;;;;;0.80;99.90;;;;;;4974993;28;19952;-78
2024/01/07 10:38:24;;;;;;;;;;;0.80;99.90;;;;;;4983156;28;19918;-77
2024/01/07 10:41:12;;;;;;;;;;;0.80;99.90;;;;;;4979417;28;20325;-78
2024/01/07 10:43:59;;;;;;;;;;;0.80;99.90;;;;;;5001041;28;19918;-77
2024/01/07 10:46:46;;;;;;;;;;;0.80;99.90;;;;;;4996495;28;19953;-78
2024/01/07 10:49:32;;;;;;;;;;;0.80;99.90;;;;;;5003157;28;20286;-78
2024/01/07 10:52:18;;;;;;;;;;;0.70;99.90;;;;;;4986280;28;19937;-77
2024/01/07 10:55:06;;;;;;;;;;;0.80;99.90;;;;;;5014971;28;20246;-78
2024/01/07 10:57:52;;;;;;;;;;;0.80;99.90;;;;;;4979774;28;19918;-78
2024/01/07 11:00:39;;;;;;;;;;;0.70;99.90;;;;;;4993548;28;19943;-78
2024/01/07 11:03:31;;;;;;;;;;;0.80;99.90;;;;;;4987627;28;20000;-78
2024/01/07 11:06:23;;;;;;;;;;;0.70;99.90;;;;;;4982087;28;19926;-79
2024/01/07 11:09:11;;;;;;;;;;;0.70;99.90;;;;;;4997053;28;19917;-78
2024/01/07 11:11:58;;;;;;;;;;;0.70;99.90;;;;;;4985376;28;19922;-78
2024/01/07 11:14:52;;;;;;;;;;;0.70;99.90;;;;;;4992519;28;19914;-77
2024/01/07 11:17:38;;;;;;;;;;;0.80;99.90;;;;;;4985608;28;19957;-78
2024/01/07 11:20:26;;;;;;;;;;;0.70;99.90;;;;;;4998094;28;19949;-77
2024/01/07 11:23:31;;;;;;;;;;;0.70;99.90;;;;;;4965117;28;19940;-79
2024/01/07 11:26:16;;;;;;;;;;;0.80;99.90;;;;;;4965106;28;19918;-78
2024/01/07 11:29:03;;;;;;;;;;;0.70;99.90;;;;;;4983066;28;19917;-78
2024/01/07 11:31:50;;;;;;;;;;;0.80;99.90;;;;;;4981484;28;19924;-78
2024/01/07 11:34:51;;;;;;;;;;;0.80;99.90;;;;;;4979801;28;20148;-78
2024/01/07 11:37:37;;;;;;;;;;;0.80;99.90;;;;;;5012772;28;20023;-78
2024/01/07 11:40:24;;;;;;;;;;;0.90;99.90;;;;;;5004838;28;19976;-78
2024/01/07 11:43:11;;;;;;;;;;;0.80;99.90;;;;;;4988620;28;20220;-78
2024/01/07 11:45:58;;;;;;;;;;;0.90;99.90;;;;;;4996594;28;19919;-77
2024/01/07 11:48:45;;;;;;;;;;;0.80;99.90;;;;;;4983635;28;19945;-77
2024/01/07 11:51:31;;;;;;;;;;;0.80;99.90;;;;;;4986601;28;19933;-77
2024/01/07 11:54:17;;;;;;;;;;;0.90;99.90;;;;;;5009829;28;19929;-77
2024/01/07 11:57:03;;;;;;;;;;;0.90;99.90;;;;;;5006116;28;20047;-78
2024/01/07 11:59:49;;;;;;;;;;;0.90;99.90;;;;;;5003915;28;19922;-78
2024/01/07 12:02:35;;;;;;;;;;;0.90;99.90;;;;;;4997958;28;19952;-78
2024/01/07 12:05:21;;;;;;;;;;;0.90;99.90;;;;;;4976235;28;19977;-79
2024/01/07 12:08:07;;;;;;;;;;;0.90;99.90;;;;;;4994359;28;20302;-79
2024/01/07 12:10:54;;;;;;;;;;;0.90;99.90;;;;;;5005410;28;20246;-79
2024/01/07 12:13:40;;;;;;;;;;;0.90;99.90;;;;;;4984738;28;20154;-79
2024/01/07 12:16:26;;;;;;;;;;;0.90;99.90;;;;;;4994830;28;19941;-79
2024/01/07 12:19:12;;;;;;;;;;;0.90;99.90;;;;;;4982739;28;19924;-79
2024/01/07 12:22:07;;;;;;;;;;;0.90;99.90;;;;;;4987131;28;19948;-79
2024/01/07 12:25:02;;;;;;;;;;;0.90;99.90;;;;;;4984762;28;19917;-78
2024/01/07 12:27:54;;;;;;;;;;;0.90;99.90;;;;;;4998346;28;20254;-79
2024/01/07 12:30:40;;;;;;;;;;;0.90;99.90;;;;;;4988050;28;20250;-79
2024/01/07 12:33:26;;;;;;;;;;;0.90;99.90;;;;;;4983326;28;20008;-78
2024/01/07 12:36:12;;;;;;;;;;;0.90;99.90;;;;;;4997643;28;19917;-79
2024/01/07 12:38:58;;;;;;;;;;;0.90;99.90;;;;;;4980609;28;19917;-78
2024/01/07 12:41:47;;;;;;;;;;;0.90;99.90;;;;;;4987043;28;20348;-78
2024/01/07 12:44:33;;;;;;;;;;;0.90;99.90;;;;;;4989133;28;20384;-78
2024/01/07 12:47:19;;;;;;;;;;;0.90;99.90;;;;;;5001767;28;19917;-78
2024/01/07 12:50:04;;;;;;;;;;;0.90;99.90;;;;;;4961313;28;19925;-79
2024/01/07 12:52:50;;;;;;;;;;;0.90;99.90;;;;;;4969224;28;19930;-79
2024/01/07 12:55:36;;;;;;;;;;;0.90;99.90;;;;;;4975927;28;19965;-79
2024/01/07 12:58:22;;;;;;;;;;;0.90;99.90;;;;;;4992478;28;19967;-79
2024/01/07 13:01:09;;;;;;;;;;;0.90;99.90;;;;;;4983405;28;19917;-79
2024/01/07 13:03:54;;;;;;;;;;;0.90;99.90;;;;;;4968372;28;20321;-79
2024/01/07 13:06:40;;;;;;;;;;;0.90;99.90;;;;;;4980706;28;19918;-79
2024/01/07 13:09:26;;;;;;;;;;;0.90;99.90;;;;;;4983938;28;19917;-79
2024/01/07 13:12:12;;;;;;;;;;;0.90;99.90;;;;;;4980338;28;19933;-79
2024/01/07 13:14:58;;;;;;;;;;;0.90;99.90;;;;;;4972087;28;19917;-78
2024/01/07 13:17:44;;;;;;;;;;;1.00;99.90;;;;;;5007542;28;20257;-78
2024/01/07 13:20:30;;;;;;;;;;;1.00;99.90;;;;;;4978538;28;19969;-79
2024/01/07 13:23:15;;;;;;;;;;;1.00;99.90;;;;;;4965493;28;20387;-79
2024/01/07 13:26:09;;;;;;;;;;;1.00;99.90;;;;;;4973971;28;19914;-79
2024/01/07 13:28:55;;;;;;;;;;;1.00;99.90;;;;;;4983371;28;20265;-79
2024/01/07 13:31:40;;;;;;;;;;;1.00;99.90;;;;;;4980573;28;19922;-79
2024/01/07 13:34:27;;;;;;;;;;;0.90;99.90;;;;;;4981961;28;19925;-80
2024/01/07 13:37:12;;;;;;;;;;;1.00;99.90;;;;;;4984153;28;19925;-79
2024/01/07 13:39:58;;;;;;;;;;;0.90;99.90;;;;;;4990784;28;19929;-79
2024/01/07 13:42:44;;;;;;;;;;;0.90;99.90;;;;;;4997369;28;19917;-79
2024/01/07 13:45:30;;;;;;;;;;;0.90;99.90;;;;;;4975084;28;19949;-78
2024/01/07 13:48:16;;;;;;;;;;;1.00;99.90;;;;;;4981268;28;19966;-79
2024/01/07 13:51:02;;;;;;;;;;;1.00;99.90;;;;;;4975410;28;19921;-78
2024/01/07 13:53:48;;;;;;;;;;;0.90;99.90;;;;;;4978106;28;19985;-79
2024/01/07 13:56:37;;;;;;;;;;;0.80;99.90;;;;;;4981471;28;19993;-78
2024/01/07 13:59:23;;;;;;;;;;;0.90;99.90;;;;;;4982600;28;19924;-78
2024/01/07 14:02:09;;;;;;;;;;;1.00;99.90;;;;;;4980591;28;20405;-79
2024/01/07 14:04:55;;;;;;;;;;;0.90;99.90;;;;;;4981303;28;19940;-79
2024/01/07 14:07:41;;;;;;;;;;;1.00;99.90;;;;;;4980158;28;19945;-78
2024/01/07 14:10:29;;;;;;;;;;;0.90;99.90;;;;;;4968859;28;20319;-79
2024/01/07 14:13:15;;;;;;;;;;;0.90;99.90;;;;;;4948580;28;19929;-77
2024/01/07 14:16:01;;;;;;;;;;;0.90;99.90;;;;;;4967342;28;19913;-78
2024/01/07 14:18:47;;;;;;;;;;;1.00;99.90;;;;;;5008852;28;19913;-78
2024/01/07 14:21:33;;;;;;;;;;;0.90;99.90;;;;;;4985403;28;20246;-78
2024/01/07 14:24:28;;;;;;;;;;;0.90;99.90;;;;;;4981290;28;19925;-77
2024/01/07 14:27:17;;;;;;;;;;;0.90;99.90;;;;;;4981995;28;20238;-78
2024/01/07 14:30:03;;;;;;;;;;;1.00;99.90;;;;;;4979798;28;19926;-77
2024/01/07 14:32:50;;;;;;;;;;;0.90;99.90;;;;;;4994547;28;19922;-77
2024/01/07 14:35:36;;;;;;;;;;;0.90;99.90;;;;;;4981884;28;19922;-78
2024/01/07 14:38:22;;;;;;;;;;;0.80;99.90;;;;;;4975015;28;19914;-78
2024/01/07 14:41:08;;;;;;;;;;;0.80;99.90;;;;;;4950298;28;19914;-79
2024/01/07 14:43:55;;;;;;;;;;;0.90;99.90;;;;;;4955131;28;20350;-79
2024/01/07 14:46:41;;;;;;;;;;;0.90;99.90;;;;;;4980575;28;19922;-78
2024/01/07 14:49:27;;;;;;;;;;;0.80;99.90;;;;;;4989184;28;19914;-78
2024/01/07 14:52:12;;;;;;;;;;;0.90;99.90;;;;;;4984131;28;20309;-77
2024/01/07 14:54:58;;;;;;;;;;;0.70;99.90;;;;;;4971841;28;19989;-78
2024/01/07 14:57:44;;;;;;;;;;;0.70;99.90;;;;;;4984844;28;19921;-79
2024/01/07 15:00:30;;;;;;;;;;;0.70;99.90;;;;;;4984214;28;19914;-79
2024/01/07 15:03:17;;;;;;;;;;;0.70;99.90;;;;;;4983574;28;20477;-79
2024/01/07 15:06:03;;;;;;;;;;;0.60;99.90;;;;;;4976301;28;19928;-77
2024/01/07 15:08:50;;;;;;;;;;;0.50;99.90;;;;;;4969628;28;19965;-77
2024/01/07 15:11:38;;;;;;;;;;;0.50;99.90;;;;;;4975524;28;19925;-79
2024/01/07 15:14:24;;;;;;;;;;;0.50;99.90;;;;;;4966322;28;20211;-78
2024/01/07 15:17:10;;;;;;;;;;;0.50;99.90;;;;;;4963360;28;19918;-78
2024/01/07 15:19:57;;;;;;;;;;;0.50;99.90;;;;;;4940851;28;19921;-78
2024/01/07 15:22:43;;;;;;;;;;;0.50;99.90;;;;;;4962282;28;19953;-79
2024/01/07 15:25:29;;;;;;;;;;;0.50;99.90;;;;;;4963925;28;19983;-78
2024/01/07 15:28:15;;;;;;;;;;;0.50;99.90;;;;;;4964302;28;20377;-78
2024/01/07 15:31:01;;;;;;;;;;;0.50;99.90;;;;;;4964053;28;19929;-79
2024/01/07 15:33:47;;;;;;;;;;;0.50;99.90;;;;;;4977310;28;19932;-79
2024/01/07 15:36:33;;;;;;;;;;;0.40;99.90;;;;;;4980914;28;19976;-78
2024/01/07 15:39:19;;;;;;;;;;;0.50;99.90;;;;;;4980610;28;19981;-78
2024/01/07 15:42:05;;;;;;;;;;;0.40;99.90;;;;;;4952505;28;19969;-78
2024/01/07 15:44:51;;;;;;;;;;;0.40;99.90;;;;;;4957902;29;20305;-78
2024/01/07 15:47:37;;;;;;;;;;;0.40;99.90;;;;;;4965698;28;19914;-78
2024/01/07 15:50:24;;;;;;;;;;;0.40;99.90;;;;;;4963038;28;19918;-77
2024/01/07 15:53:10;;;;;;;;;;;0.40;99.90;;;;;;4971184;28;19957;-79
2024/01/07 15:55:56;;;;;;;;;;;0.40;99.90;;;;;;4949172;28;19918;-78
2024/01/07 15:58:42;;;;;;;;;;;0.40;99.90;;;;;;4956459;28;19914;-78
2024/01/07 16:01:28;;;;;;;;;;;0.40;99.90;;;;;;4972864;28;19917;-78
2024/01/07 16:04:14;;;;;;;;;;;0.40;99.90;;;;;;4978191;28;19948;-78
2024/01/07 16:07:00;;;;;;;;;;;0.40;99.90;;;;;;4958013;28;20001;-78
2024/01/07 16:09:46;;;;;;;;;;;0.30;99.90;;;;;;4953160;28;19914;-78
2024/01/07 16:12:32;;;;;;;;;;;0.40;99.90;;;;;;4947459;28;19927;-78
2024/01/07 16:15:18;;;;;;;;;;;0.30;99.90;;;;;;4968944;28;20559;-78
2024/01/07 16:18:04;;;;;;;;;;;0.30;99.90;;;;;;4944884;28;19917;-77
2024/01/07 16:20:49;;;;;;;;;;;0.30;99.90;;;;;;4985734;28;20247;-78